Terminal Aerodrome Forecast
Issued by NWS Melbourne, FL

Current Version | Previous Version | Text Only | Print | Product List | Glossary On
Versions: 1 2 3 4 5 6 7 8 9 10 11 12 13
000
FTUS42 KMLB 292101 AAA
TAFDAB
TAF AMD
KDAB 292101Z 2921/3018 05012KT P6SM FEW030 SCT120
     FM300100 07004KT P6SM SCT035
     FM301400 08009KT P6SM SCT035
      TEMPO 3015/3017 BKN035=

USA.gov is the U.S. government's official web portal to all federal, state and local government web resources and services.